Brilliance Of The Seas — C6SJ5 — position and weather

sailwx.info

Track history (hours):
 
Tides and Currents Weather Stations Pressure Air Temp Water Temp Dewpoint Dewpoint Depression Visibility Wind Speed Wind Dir Waves Ship Positions

Brilliance Of The Seas

Operator: Royal Caribbean Cruises Ltd

Last reported at 2016-Dec-02 12:00 UTC. Time now 2016-Dec-03 04:39 UTC.
Position N 23°24' W 085°18'.

Type: Ship. MMSI: 311361000.

Wind from 070 at 18 knots

Barometer 1012.0 mb
Air temperature 26.0 ° C
Visibility: greater than 5.4 NM
Dewpoint 24.6 ° C
Water temperature 29.0 ° C

Date/timePositionNaut miles runAvg speedWind from/ knotsBaromVisibWave heightAir tempDewpointWater temp
2016-Dec-02 12:00N 23°24' W 085°18'19316.6 070 / 181012.0 5.4 26.024.629.0
2016-Dec-02 00:21N 20°35' W 086°58'6 7.5
2016-Dec-01 23:33N 20°29' W 086°59'0 0.0
2016-Dec-01 22:33N 20°29' W 086°59'0 0.0
2016-Dec-01 21:33N 20°29' W 086°59'0 0.0
2016-Dec-01 20:30N 20°29' W 086°59'0 0.0
2016-Dec-01 19:27N 20°29' W 086°59'0 0.0
2016-Dec-01 18:33N 20°29' W 086°59'0 0.0
2016-Dec-01 17:33N 20°29' W 086°59'0 0.0
2016-Dec-01 16:33N 20°29' W 086°59'0 0.0
2016-Dec-01 15:33N 20°29' W 086°59'0 0.0
2016-Dec-01 14:33N 20°29' W 086°59'5 4.7
2016-Dec-01 13:33N 20°33' W 086°58'27620.4
2016-Dec-01 00:00N 19°30' W 082°12'326 9.0 120 / 131005.010.8 27.0 26.0
2016-Nov-29 12:00N 24°36' W 084°12'20715.9 150 / 271004.0 5.4 25.023.626.0
2016-Nov-28 23:00N 27°42' W 082°30'4 8.8 110 / 131004.0 23.0 22.0
2016-Nov-28 22:33N 27°46' W 082°31'1010.1
2016-Nov-28 21:33N 27°55' W 082°27'2 1.8
2016-Nov-28 20:32N 27°57' W 082°27'0 0.0
2016-Nov-28 19:32N 27°57' W 082°27'0 0.0
2016-Nov-28 18:32N 27°57' W 082°27'0 0.0
2016-Nov-28 17:32N 27°57' W 082°27'0 0.0
2016-Nov-28 16:32N 27°57' W 082°27'0 0.0
2016-Nov-28 15:32N 27°57' W 082°27'0 0.0
2016-Nov-28 14:32N 27°57' W 082°27'0 0.0
2016-Nov-28 13:32N 27°57' W 082°27'0 0.0
2016-Nov-28 12:32N 27°57' W 082°27'0 0.2
2016-Nov-28 11:33N 27°56' W 082°27'6 6.1
2016-Nov-28 10:33N 27°50' W 082°27'1212.3
2016-Nov-28 09:34N 27°41' W 082°35'12812.1
2016-Nov-27 23:00N 25°54' W 083°54'16815.3 090 / 191013.0 23.0 27.0
2016-Nov-27 12:00N 23°24' W 085°18'19315.3 060 / 181022.0 5.4 25.023.628.0
2016-Nov-26 23:22N 20°34' W 086°58'6 6.0
2016-Nov-26 22:26N 20°29' W 086°59'0 0.0
2016-Nov-26 21:32N 20°29' W 086°59'0 0.0
2016-Nov-26 20:32N 20°29' W 086°59'0 0.0
2016-Nov-26 19:32N 20°29' W 086°59'0 0.0
2016-Nov-26 18:32N 20°29' W 086°59'0 0.0
2016-Nov-26 17:32N 20°29' W 086°59'0 0.0
2016-Nov-26 16:32N 20°29' W 086°59'0 0.0
2016-Nov-26 15:32N 20°29' W 086°59'0 0.0
2016-Nov-26 14:32N 20°29' W 086°59'0 0.0
2016-Nov-26 13:32N 20°29' W 086°59'0 0.2
2016-Nov-26 12:33N 20°29' W 086°59'32512.7
2016-Nov-25 11:00N 25°18' W 084°18'17514.0 080 / 231020.0 5.4 26.023.226.0
2016-Nov-24 22:33N 27°45' W 082°32'1111.0
2016-Nov-24 21:34N 27°54' W 082°26'2 2.1
2016-Nov-24 20:31N 27°57' W 082°27'0 0.0
2016-Nov-24 19:31N 27°57' W 082°27'0 0.0
2016-Nov-24 18:31N 27°57' W 082°27'0 0.0
2016-Nov-24 17:31N 27°57' W 082°27'0 0.0
2016-Nov-24 16:31N 27°57' W 082°27'0 0.0
2016-Nov-24 15:31N 27°57' W 082°27'0 0.0
2016-Nov-24 14:31N 27°57' W 082°27'0 0.0
2016-Nov-24 13:25N 27°57' W 082°27'0 0.0
2016-Nov-24 12:31N 27°57' W 082°27'0 0.2
2016-Nov-24 11:33N 27°56' W 082°27'5 4.9
2016-Nov-24 10:34N 27°52' W 082°27'1312.1
2016-Nov-24 09:31N 27°41' W 082°34'29913.9
2016-Nov-23 12:00N 23°24' W 085°24'19215.4 110 / 301016.0 5.4 26.023.228.0
2016-Nov-22 23:31N 20°33' W 086°58'2 2.2
2016-Nov-22 22:24N 20°31' W 086°57'0 0.0
2016-Nov-22 20:33N 20°31' W 086°57'0 0.0
2016-Nov-22 19:30N 20°31' W 086°57'0 0.0
2016-Nov-22 17:33N 20°31' W 086°57'0 0.0
2016-Nov-22 16:33N 20°31' W 086°57'0 0.0
2016-Nov-22 15:33N 20°31' W 086°57'0 0.0
2016-Nov-22 14:33N 20°31' W 086°57'0 0.0
2016-Nov-22 13:24N 20°31' W 086°57'  
Track history (hours):
 
Tides and Currents Weather Stations Pressure Air Temp Water Temp Dewpoint Dewpoint Depression Visibility Wind Speed Wind Dir Waves Ship Positions

Brilliance Of The Seas

Operator: Royal Caribbean Cruises Ltd

Last reported at 2016-Dec-02 12:00 UTC. Time now 2016-Dec-03 04:39 UTC.
Position N 23°24' W 085°18'.

Type: Ship. MMSI: 311361000.

Wind from 070 at 18 knots

Barometer 1012.0 mb
Air temperature 26.0 ° C
Visibility: greater than 5.4 NM
Dewpoint 24.6 ° C
Water temperature 29.0 ° C

Date/timePositionNaut miles runAvg speedWind from/ knotsBaromVisibWave heightAir tempDewpointWater temp
2016-Dec-02 12:00N 23°24' W 085°18'19316.6 070 / 181012.0 5.4 26.024.629.0
2016-Dec-02 00:21N 20°35' W 086°58'6 7.5
2016-Dec-01 23:33N 20°29' W 086°59'0 0.0
2016-Dec-01 22:33N 20°29' W 086°59'0 0.0
2016-Dec-01 21:33N 20°29' W 086°59'0 0.0
2016-Dec-01 20:30N 20°29' W 086°59'0 0.0
2016-Dec-01 19:27N 20°29' W 086°59'0 0.0
2016-Dec-01 18:33N 20°29' W 086°59'0 0.0
2016-Dec-01 17:33N 20°29' W 086°59'0 0.0
2016-Dec-01 16:33N 20°29' W 086°59'0 0.0
2016-Dec-01 15:33N 20°29' W 086°59'0 0.0
2016-Dec-01 14:33N 20°29' W 086°59'5 4.7
2016-Dec-01 13:33N 20°33' W 086°58'27620.4
2016-Dec-01 00:00N 19°30' W 082°12'326 9.0 120 / 131005.010.8 27.0 26.0
2016-Nov-29 12:00N 24°36' W 084°12'20715.9 150 / 271004.0 5.4 25.023.626.0
2016-Nov-28 23:00N 27°42' W 082°30'4 8.8 110 / 131004.0 23.0 22.0
2016-Nov-28 22:33N 27°46' W 082°31'1010.1
2016-Nov-28 21:33N 27°55' W 082°27'2 1.8
2016-Nov-28 20:32N 27°57' W 082°27'0 0.0
2016-Nov-28 19:32N 27°57' W 082°27'0 0.0
2016-Nov-28 18:32N 27°57' W 082°27'0 0.0
2016-Nov-28 17:32N 27°57' W 082°27'0 0.0
2016-Nov-28 16:32N 27°57' W 082°27'0 0.0
2016-Nov-28 15:32N 27°57' W 082°27'0 0.0
2016-Nov-28 14:32N 27°57' W 082°27'0 0.0
2016-Nov-28 13:32N 27°57' W 082°27'0 0.0
2016-Nov-28 12:32N 27°57' W 082°27'0 0.2
2016-Nov-28 11:33N 27°56' W 082°27'6 6.1
2016-Nov-28 10:33N 27°50' W 082°27'1212.3
2016-Nov-28 09:34N 27°41' W 082°35'12812.1
2016-Nov-27 23:00N 25°54' W 083°54'16815.3 090 / 191013.0 23.0 27.0
2016-Nov-27 12:00N 23°24' W 085°18'19315.3 060 / 181022.0 5.4 25.023.628.0
2016-Nov-26 23:22N 20°34' W 086°58'6 6.0
2016-Nov-26 22:26N 20°29' W 086°59'0 0.0
2016-Nov-26 21:32N 20°29' W 086°59'0 0.0
2016-Nov-26 20:32N 20°29' W 086°59'0 0.0
2016-Nov-26 19:32N 20°29' W 086°59'0 0.0
2016-Nov-26 18:32N 20°29' W 086°59'0 0.0
2016-Nov-26 17:32N 20°29' W 086°59'0 0.0
2016-Nov-26 16:32N 20°29' W 086°59'0 0.0
2016-Nov-26 15:32N 20°29' W 086°59'0 0.0
2016-Nov-26 14:32N 20°29' W 086°59'0 0.0
2016-Nov-26 13:32N 20°29' W 086°59'0 0.2
2016-Nov-26 12:33N 20°29' W 086°59'32512.7
2016-Nov-25 11:00N 25°18' W 084°18'17514.0 080 / 231020.0 5.4 26.023.226.0
2016-Nov-24 22:33N 27°45' W 082°32'1111.0
2016-Nov-24 21:34N 27°54' W 082°26'2 2.1
2016-Nov-24 20:31N 27°57' W 082°27'0 0.0
2016-Nov-24 19:31N 27°57' W 082°27'0 0.0
2016-Nov-24 18:31N 27°57' W 082°27'0 0.0
2016-Nov-24 17:31N 27°57' W 082°27'0 0.0
2016-Nov-24 16:31N 27°57' W 082°27'0 0.0
2016-Nov-24 15:31N 27°57' W 082°27'0 0.0
2016-Nov-24 14:31N 27°57' W 082°27'0 0.0
2016-Nov-24 13:25N 27°57' W 082°27'0 0.0
2016-Nov-24 12:31N 27°57' W 082°27'0 0.2
2016-Nov-24 11:33N 27°56' W 082°27'5 4.9
2016-Nov-24 10:34N 27°52' W 082°27'1312.1
2016-Nov-24 09:31N 27°41' W 082°34'29913.9
2016-Nov-23 12:00N 23°24' W 085°24'19215.4 110 / 301016.0 5.4 26.023.228.0
2016-Nov-22 23:31N 20°33' W 086°58'2 2.2
2016-Nov-22 22:24N 20°31' W 086°57'0 0.0
2016-Nov-22 20:33N 20°31' W 086°57'0 0.0
2016-Nov-22 19:30N 20°31' W 086°57'0 0.0
2016-Nov-22 17:33N 20°31' W 086°57'0 0.0
2016-Nov-22 16:33N 20°31' W 086°57'0 0.0
2016-Nov-22 15:33N 20°31' W 086°57'0 0.0
2016-Nov-22 14:33N 20°31' W 086°57'0 0.0
2016-Nov-22 13:24N 20°31' W 086°57'  

Dump ship's entire track history